Time;durP1;ratioP1;P1;durP2;ratioP2;P2;SDS_P1;SDS_P2;PMS_P1;PMS_P2;Temp;Humidity;BMP_temperature;BMP_pressure;BME280_temperature;BME280_humidity;BME280_pressure;Samples;Min_cycle;Max_cycle;Signal;HPM_P1;HPM_P2
2021/03/19 00:00:25;;;;;;;16.25;14.55;;;6.00;99.90;;;;;;2078515;28;20305;-77
2021/03/19 00:01:26;;;;;;;16.40;14.82;;;6.00;99.90;;;;;;2080035;28;20544;-78
2021/03/19 00:02:26;;;;;;;16.85;15.15;;;6.00;99.90;;;;;;2080056;28;20126;-77
2021/03/19 00:03:27;;;;;;;18.35;15.50;;;6.00;99.90;;;;;;2072136;28;20561;-78
2021/03/19 00:04:28;;;;;;;15.48;13.90;;;5.90;99.90;;;;;;2071612;28;20493;-78
2021/03/19 00:05:30;;;;;;;18.52;15.45;;;6.00;99.90;;;;;;2080100;28;20031;-78
2021/03/19 00:06:31;;;;;;;16.05;14.38;;;5.90;99.90;;;;;;2072823;28;20034;-78
2021/03/19 00:07:50;;;;;;;16.92;15.15;;;5.90;99.90;;;;;;2072801;28;20026;-78
2021/03/19 00:08:51;;;;;;;16.77;15.05;;;5.90;99.90;;;;;;2074431;28;20038;-78
2021/03/19 00:09:52;;;;;;;19.75;15.15;;;5.90;99.90;;;;;;2072866;28;20074;-78
2021/03/19 00:10:53;;;;;;;15.98;14.43;;;5.90;99.90;;;;;;2064790;28;20117;-78
2021/03/19 00:11:54;;;;;;;17.30;15.52;;;5.80;99.90;;;;;;2073451;28;20026;-80
2021/03/19 00:12:56;;;;;;;16.70;14.95;;;5.80;99.90;;;;;;2075586;28;20018;-80
2021/03/19 00:13:57;;;;;;;20.25;14.18;;;5.80;99.90;;;;;;2082915;28;20029;-80
2021/03/19 00:15:10;;;;;;;15.43;13.82;;;5.80;99.90;;;;;;2083357;28;20350;-80
2021/03/19 00:16:12;;;;;;;17.52;14.07;;;5.80;99.90;;;;;;2077179;28;20072;-81
2021/03/19 00:17:12;;;;;;;17.70;15.02;;;5.80;99.90;;;;;;2092361;28;20465;-81
2021/03/19 00:18:13;;;;;;;17.80;15.90;;;5.80;99.90;;;;;;2091644;28;20028;-80
2021/03/19 00:19:14;;;;;;;16.55;14.85;;;5.80;99.90;;;;;;2091864;28;20051;-81
2021/03/19 00:20:15;;;;;;;18.00;15.32;;;5.80;99.90;;;;;;2092015;28;20031;-80
2021/03/19 00:21:16;;;;;;;18.40;14.90;;;5.80;99.90;;;;;;2083187;28;20032;-80
2021/03/19 00:22:17;;;;;;;18.25;14.93;;;5.80;99.90;;;;;;2083682;28;20021;-81
2021/03/19 00:23:18;;;;;;;15.98;14.43;;;5.80;99.90;;;;;;2083508;28;20104;-80
2021/03/19 00:24:18;;;;;;;17.73;15.30;;;5.80;99.90;;;;;;2091799;28;20029;-80
2021/03/19 00:25:19;;;;;;;17.73;15.90;;;5.80;99.90;;;;;;2091339;28;20492;-80
2021/03/19 00:26:20;;;;;;;16.75;15.15;;;5.80;99.90;;;;;;2083534;28;20029;-80
2021/03/19 00:27:21;;;;;;;16.65;14.93;;;5.80;99.90;;;;;;2091591;28;20122;-80
2021/03/19 00:28:21;;;;;;;16.95;15.23;;;5.80;99.90;;;;;;2090974;28;20208;-80
2021/03/19 00:29:22;;;;;;;17.73;15.65;;;5.80;99.90;;;;;;2083536;28;20018;-81
2021/03/19 00:30:24;;;;;;;17.55;14.80;;;5.80;99.90;;;;;;2083753;28;20025;-80
2021/03/19 00:31:24;;;;;;;15.68;13.65;;;5.80;99.90;;;;;;2083301;28;20073;-80
2021/03/19 00:32:25;;;;;;;20.25;14.93;;;5.80;99.90;;;;;;2082470;28;20044;-79
2021/03/19 00:33:26;;;;;;;29.52;15.48;;;5.80;99.90;;;;;;2082768;28;20425;-80
2021/03/19 00:34:26;;;;;;;17.65;14.50;;;5.80;99.90;;;;;;2083328;28;20108;-80
2021/03/19 00:35:27;;;;;;;17.83;15.15;;;5.80;99.90;;;;;;2075148;28;20030;-79
2021/03/19 00:36:28;;;;;;;18.08;16.17;;;5.80;99.90;;;;;;2083633;28;20025;-80
2021/03/19 00:37:28;;;;;;;17.83;15.93;;;5.70;99.90;;;;;;2083755;28;20029;-80
2021/03/19 00:38:29;;;;;;;20.23;16.23;;;5.70;99.90;;;;;;2083699;28;20040;-79
2021/03/19 00:39:30;;;;;;;17.10;15.45;;;5.70;99.90;;;;;;2074881;28;20022;-79
2021/03/19 00:40:31;;;;;;;17.30;15.55;;;5.70;99.90;;;;;;2082749;28;20485;-80
2021/03/19 00:41:35;;;;;;;17.13;15.45;;;5.70;99.90;;;;;;2082611;28;20029;-79
2021/03/19 00:42:37;;;;;;;17.98;14.75;;;5.70;99.90;;;;;;2082770;28;20021;-80
2021/03/19 00:43:37;;;;;;;19.85;16.25;;;5.70;99.90;;;;;;2074970;28;20018;-79
2021/03/19 00:44:40;;;;;;;17.77;15.88;;;5.70;99.90;;;;;;2083157;28;20525;-80
2021/03/19 00:45:42;;;;;;;16.35;14.57;;;5.70;99.90;;;;;;2083695;28;20121;-80
2021/03/19 00:46:42;;;;;;;19.35;15.50;;;5.70;99.90;;;;;;2083409;28;20045;-81
2021/03/19 00:47:43;;;;;;;20.52;15.93;;;5.60;99.90;;;;;;2074871;28;20068;-80
2021/03/19 00:48:44;;;;;;;17.42;15.70;;;5.60;99.90;;;;;;2075436;28;20026;-81
2021/03/19 00:49:45;;;;;;;19.15;16.30;;;5.60;99.90;;;;;;2075173;28;20026;-79
2021/03/19 00:50:46;;;;;;;16.30;14.57;;;5.60;99.90;;;;;;2091840;28;20031;-80
2021/03/19 00:51:47;;;;;;;16.73;15.05;;;5.60;99.90;;;;;;2091273;28;20060;-80
2021/03/19 00:52:47;;;;;;;17.90;15.98;;;5.60;99.90;;;;;;2083301;28;20026;-80
2021/03/19 00:53:48;;;;;;;18.88;15.07;;;5.60;99.90;;;;;;2091507;28;20028;-81
2021/03/19 00:54:49;;;;;;;20.92;16.02;;;5.60;99.90;;;;;;2100209;28;20032;-80
2021/03/19 00:55:55;;;;;;;17.38;15.55;;;5.60;99.90;;;;;;2083821;28;20021;-80
2021/03/19 00:56:56;;;;;;;18.02;15.05;;;5.60;99.90;;;;;;2082736;28;20036;-78
2021/03/19 00:57:57;;;;;;;17.10;15.30;;;5.60;99.90;;;;;;2073069;28;20033;-77
2021/03/19 00:58:57;;;;;;;17.17;15.35;;;5.60;99.90;;;;;;2080188;28;20093;-77
2021/03/19 00:59:58;;;;;;;18.20;15.32;;;5.50;99.90;;;;;;2087623;28;20113;-77
2021/03/19 01:00:59;;;;;;;17.73;15.93;;;5.50;99.90;;;;;;2087707;28;20462;-76
2021/03/19 01:01:59;;;;;;;17.65;15.88;;;5.50;99.90;;;;;;2079714;28;20505;-77
2021/03/19 01:03:01;;;;;;;17.38;15.48;;;5.50;99.90;;;;;;2088036;28;20519;-77
2021/03/19 01:04:04;;;;;;;18.35;16.45;;;5.50;99.90;;;;;;2088052;28;20039;-77
2021/03/19 01:05:12;;;;;;;19.17;16.42;;;5.60;99.90;;;;;;2078367;28;20445;-77
2021/03/19 01:06:14;;;;;;;19.08;16.27;;;5.50;99.90;;;;;;2072278;28;20114;-77
2021/03/19 01:07:15;;;;;;;17.42;15.63;;;5.60;99.90;;;;;;2078786;28;20493;-76
2021/03/19 01:08:16;;;;;;;19.48;16.05;;;5.60;99.90;;;;;;2079211;28;20045;-77
2021/03/19 01:09:17;;;;;;;16.77;15.00;;;5.50;99.90;;;;;;2087943;28;20055;-77
2021/03/19 01:10:40;;;;;;;20.27;16.23;;;5.60;99.90;;;;;;2087589;28;20030;-77
2021/03/19 01:11:41;;;;;;;22.67;18.95;;;5.60;99.90;;;;;;2067791;28;20044;-77
2021/03/19 01:12:42;;;;;;;18.35;16.50;;;5.60;99.90;;;;;;2087738;28;20036;-77
2021/03/19 01:13:43;;;;;;;18.58;16.08;;;5.60;99.90;;;;;;2087798;28;20520;-77
2021/03/19 01:14:44;;;;;;;18.73;16.88;;;5.60;99.90;;;;;;2079035;28;20041;-77
2021/03/19 01:15:45;;;;;;;19.35;16.60;;;5.60;99.90;;;;;;2081489;28;20071;-77
2021/03/19 01:16:45;;;;;;;18.08;16.08;;;5.50;99.90;;;;;;2085221;28;20448;-76
2021/03/19 01:17:46;;;;;;;18.77;15.85;;;5.60;99.90;;;;;;2071282;28;20030;-77
2021/03/19 01:18:47;;;;;;;17.35;15.65;;;5.60;99.90;;;;;;2063026;28;20034;-77
2021/03/19 01:19:48;;;;;;;18.00;16.05;;;5.60;99.90;;;;;;2076143;28;20393;-77
2021/03/19 01:20:50;;;;;;;18.50;15.57;;;5.60;99.90;;;;;;2070872;28;20033;-76
2021/03/19 01:21:51;;;;;;;20.45;16.77;;;5.60;99.90;;;;;;2071819;28;20026;-77
2021/03/19 01:22:52;;;;;;;19.38;16.67;;;5.60;99.90;;;;;;2071296;28;20037;-77
2021/03/19 01:23:53;;;;;;;18.83;16.98;;;5.60;99.90;;;;;;2088320;28;20420;-77
2021/03/19 01:24:54;;;;;;;17.98;16.08;;;5.50;99.90;;;;;;2095546;28;20032;-77
2021/03/19 01:25:55;;;;;;;16.98;15.30;;;5.50;99.90;;;;;;2073576;28;20117;-77
2021/03/19 01:26:56;;;;;;;16.25;14.55;;;5.50;99.90;;;;;;2071049;28;20117;-77
2021/03/19 01:27:56;;;;;;;18.00;16.13;;;5.50;99.90;;;;;;2080015;28;20033;-77
2021/03/19 01:28:57;;;;;;;17.20;15.30;;;5.50;99.90;;;;;;2087868;28;20770;-77
2021/03/19 01:29:58;;;;;;;17.55;15.68;;;5.50;99.90;;;;;;2087739;28;20473;-77
2021/03/19 01:30:58;;;;;;;18.73;16.33;;;5.50;99.90;;;;;;2079407;28;20100;-77
2021/03/19 01:31:59;;;;;;;17.52;15.70;;;5.50;99.90;;;;;;2071284;28;20486;-77
2021/03/19 01:33:00;;;;;;;17.45;15.45;;;5.50;99.90;;;;;;2079365;28;20029;-77
2021/03/19 01:34:01;;;;;;;17.58;15.75;;;5.50;99.90;;;;;;2079019;28;20029;-77
2021/03/19 01:35:02;;;;;;;17.08;15.35;;;5.50;99.90;;;;;;2079557;28;20120;-77
2021/03/19 01:36:07;;;;;;;17.65;15.77;;;5.40;99.90;;;;;;2075875;28;20064;-77
2021/03/19 01:37:07;;;;;;;17.58;15.60;;;5.40;99.90;;;;;;2079347;28;20108;-77
2021/03/19 01:38:10;;;;;;;17.10;14.38;;;5.40;99.90;;;;;;2063168;28;20022;-77
2021/03/19 01:39:10;;;;;;;17.00;15.13;;;5.40;99.90;;;;;;2083271;28;20029;-77
2021/03/19 01:40:13;;;;;;;18.52;15.88;;;5.40;99.90;;;;;;2087591;28;20052;-77
2021/03/19 01:41:13;;;;;;;18.25;15.95;;;5.40;99.90;;;;;;2072648;28;20439;-77
2021/03/19 01:42:14;;;;;;;17.30;15.10;;;5.40;99.90;;;;;;2072501;28;20077;-78
2021/03/19 01:43:29;;;;;;;18.30;15.60;;;5.40;99.90;;;;;;2073009;28;20042;-78
2021/03/19 01:45:09;;;;;;;19.85;15.95;;;5.40;99.90;;;;;;2078880;28;20029;-78
2021/03/19 01:46:46;;;;;;;16.80;15.02;;;5.40;99.90;;;;;;2055391;28;20031;-79
2021/03/19 01:48:44;;;;;;;17.30;15.48;;;5.30;99.90;;;;;;2074985;28;20025;-76
2021/03/19 01:50:21;;;;;;;18.23;15.70;;;5.30;99.90;;;;;;2070351;28;20122;-78
2021/03/19 01:51:59;;;;;;;17.85;15.38;;;5.20;99.90;;;;;;2054589;28;20038;-77
2021/03/19 01:53:37;;;;;;;18.75;15.63;;;5.20;99.90;;;;;;2059518;28;20611;-78
2021/03/19 01:55:15;;;;;;;18.50;14.77;;;5.10;99.90;;;;;;2051305;28;20090;-77
2021/03/19 01:56:53;;;;;;;19.83;15.30;;;5.10;99.90;;;;;;2072078;28;20045;-77
2021/03/19 01:58:31;;;;;;;16.75;14.95;;;5.10;99.90;;;;;;2071524;28;20033;-78
2021/03/19 02:00:09;;;;;;;14.82;13.15;;;5.10;99.90;;;;;;2068014;28;20030;-77
2021/03/19 02:01:46;;;;;;;15.77;13.95;;;5.10;99.90;;;;;;2070696;28;20097;-77
2021/03/19 02:03:24;;;;;;;16.65;14.90;;;5.20;99.90;;;;;;2075739;28;20040;-77
2021/03/19 02:05:02;;;;;;;15.02;13.43;;;5.10;99.90;;;;;;2078392;28;20398;-78
2021/03/19 02:06:40;;;;;;;17.58;13.48;;;5.20;99.90;;;;;;2084219;28;20025;-78
2021/03/19 02:08:17;;;;;;;18.90;14.18;;;5.10;99.90;;;;;;2074360;28;20504;-78
2021/03/19 02:09:55;;;;;;;16.45;13.50;;;5.20;99.90;;;;;;2071128;28;20033;-77
2021/03/19 02:11:33;;;;;;;15.55;13.95;;;5.10;99.90;;;;;;2075798;28;20036;-78
2021/03/19 02:13:11;;;;;;;14.60;13.07;;;5.10;99.90;;;;;;2094125;28;20031;-77
2021/03/19 02:14:49;;;;;;;15.75;13.40;;;5.10;99.90;;;;;;2074858;28;20504;-77
2021/03/19 02:16:37;;;;;;;14.27;12.65;;;5.00;99.90;;;;;;2084310;28;20039;-77
2021/03/19 02:18:15;;;;;;;15.75;13.30;;;5.00;99.90;;;;;;2032032;29;20039;-78
2021/03/19 02:19:53;;;;;;;14.40;13.00;;;5.00;99.90;;;;;;2064035;28;20036;-78
2021/03/19 02:21:31;;;;;;;18.85;13.02;;;5.00;99.90;;;;;;2074982;28;20030;-78
2021/03/19 02:23:09;;;;;;;13.70;12.02;;;4.90;99.90;;;;;;2071634;28;20543;-78
2021/03/19 02:24:46;;;;;;;13.90;12.32;;;4.90;99.90;;;;;;2073686;28;22272;-78
2021/03/19 02:26:24;;;;;;;15.82;11.85;;;4.90;99.90;;;;;;2077131;28;20149;-80
2021/03/19 02:28:02;;;;;;;13.90;12.15;;;4.90;99.90;;;;;;2077421;28;20025;-78
2021/03/19 02:29:39;;;;;;;16.05;12.57;;;4.80;99.90;;;;;;2079206;28;20547;-80
2021/03/19 02:31:11;;;;;;;15.70;11.85;;;4.80;99.90;;;;;;2082437;28;20494;-81
2021/03/19 02:32:25;;;;;;;13.60;11.70;;;4.80;99.90;;;;;;2095185;28;20021;-80
2021/03/19 02:33:26;;;;;;;14.43;11.93;;;4.80;99.90;;;;;;2089134;28;20386;-81
2021/03/19 02:34:32;;;;;;;13.80;10.93;;;4.70;99.90;;;;;;2082301;28;20028;-77
2021/03/19 02:35:51;;;;;;;13.55;10.98;;;4.80;99.90;;;;;;2078961;28;20021;-78
2021/03/19 02:36:51;;;;;;;12.95;11.65;;;4.80;99.90;;;;;;2089477;28;20060;-78
2021/03/19 02:37:52;;;;;;;16.05;11.75;;;4.80;99.90;;;;;;2087457;28;20021;-79
2021/03/19 02:38:53;;;;;;;14.23;11.35;;;4.80;99.90;;;;;;2088125;28;20032;-79
2021/03/19 02:39:54;;;;;;;14.63;11.10;;;4.80;99.90;;;;;;2088399;28;20060;-78
2021/03/19 02:40:56;;;;;;;12.30;10.82;;;4.80;99.90;;;;;;2071338;28;20041;-78
2021/03/19 02:41:57;;;;;;;17.88;11.70;;;4.80;99.90;;;;;;2072132;28;20030;-78
2021/03/19 02:42:57;;;;;;;14.93;11.90;;;4.80;99.90;;;;;;2071520;28;20352;-77
2021/03/19 02:43:58;;;;;;;12.98;11.45;;;4.70;99.90;;;;;;2073575;28;20022;-81
2021/03/19 02:45:00;;;;;;;11.93;10.68;;;4.70;99.90;;;;;;2091541;28;20033;-81
2021/03/19 02:46:00;;;;;;;13.73;12.07;;;4.70;99.90;;;;;;2082218;28;20037;-78
2021/03/19 02:47:03;;;;;;;14.07;11.50;;;4.70;99.90;;;;;;2068076;28;20528;-78
2021/03/19 02:48:04;;;;;;;13.10;11.25;;;4.80;99.90;;;;;;2063019;28;20710;-77
2021/03/19 02:49:05;;;;;;;13.68;11.73;;;4.70;99.90;;;;;;2078917;28;20076;-77
2021/03/19 02:50:08;;;;;;;13.57;11.40;;;4.80;99.90;;;;;;2079291;28;20025;-78
2021/03/19 02:51:08;;;;;;;13.27;10.70;;;4.70;99.90;;;;;;2079397;28;20067;-77
2021/03/19 02:52:09;;;;;;;13.73;12.32;;;4.70;99.90;;;;;;2078825;28;20033;-77
2021/03/19 02:53:14;;;;;;;15.60;13.18;;;4.70;99.90;;;;;;2079169;28;20037;-77
2021/03/19 02:54:15;;;;;;;17.13;13.23;;;4.80;99.90;;;;;;2085878;28;20027;-77
2021/03/19 02:55:17;;;;;;;17.90;12.98;;;4.80;99.90;;;;;;2071037;28;20493;-78
2021/03/19 02:56:18;;;;;;;16.92;12.73;;;4.80;99.90;;;;;;2071177;28;20025;-78
2021/03/19 02:57:19;;;;;;;14.35;12.50;;;4.80;99.90;;;;;;2078842;28;20025;-76
2021/03/19 02:58:20;;;;;;;13.15;11.40;;;4.80;99.90;;;;;;2079074;28;20493;-76
2021/03/19 02:59:21;;;;;;;13.85;12.23;;;4.80;99.90;;;;;;2071793;28;20026;-76
2021/03/19 03:00:24;;;;;;;14.65;11.85;;;4.80;99.90;;;;;;2067332;28;20112;-77
2021/03/19 03:01:25;;;;;;;17.48;12.70;;;4.80;99.90;;;;;;2072075;28;20026;-78
2021/03/19 03:02:26;;;;;;;14.38;12.23;;;4.80;99.90;;;;;;2071546;28;20101;-77
2021/03/19 03:03:27;;;;;;;14.63;12.55;;;4.80;99.90;;;;;;2066677;28;20096;-76
2021/03/19 03:04:27;;;;;;;15.88;13.10;;;4.80;99.90;;;;;;2071867;28;20390;-77
2021/03/19 03:05:28;;;;;;;14.07;12.45;;;4.80;99.90;;;;;;2080563;28;20032;-76
2021/03/19 03:06:36;;;;;;;19.30;13.18;;;4.90;99.90;;;;;;2081187;28;20043;-77
2021/03/19 03:07:36;;;;;;;18.08;13.57;;;4.90;99.90;;;;;;2073953;28;20030;-76
2021/03/19 03:08:37;;;;;;;15.20;12.80;;;4.90;99.90;;;;;;2081273;28;20060;-76
2021/03/19 03:09:38;;;;;;;16.77;14.05;;;4.90;99.90;;;;;;2089772;28;20035;-77
2021/03/19 03:10:39;;;;;;;16.80;13.40;;;4.90;99.90;;;;;;2091923;28;20025;-77
2021/03/19 03:11:41;;;;;;;15.18;13.52;;;4.90;99.90;;;;;;2090783;28;20487;-79
2021/03/19 03:12:42;;;;;;;17.67;13.88;;;4.90;99.90;;;;;;2098635;28;20037;-79
2021/03/19 03:13:43;;;;;;;19.73;13.13;;;4.90;99.90;;;;;;2082138;28;20025;-78
2021/03/19 03:14:43;;;;;;;15.02;12.70;;;4.90;99.90;;;;;;2074030;28;20037;-78
2021/03/19 03:15:45;;;;;;;16.20;12.90;;;4.90;99.90;;;;;;2082996;28;20061;-79
2021/03/19 03:16:47;;;;;;;19.23;13.65;;;4.90;99.90;;;;;;2069640;28;20026;-79
2021/03/19 03:17:49;;;;;;;14.35;12.85;;;4.90;99.90;;;;;;2069257;28;20055;-79
2021/03/19 03:18:49;;;;;;;14.68;13.05;;;4.90;99.90;;;;;;2082140;28;20030;-79
2021/03/19 03:19:50;;;;;;;15.32;13.45;;;4.80;99.90;;;;;;2073251;28;20030;-78
2021/03/19 03:20:55;;;;;;;21.05;13.57;;;4.80;99.90;;;;;;2067212;28;20033;-79
2021/03/19 03:21:56;;;;;;;14.60;12.70;;;4.80;99.90;;;;;;2066625;28;20029;-79
2021/03/19 03:22:57;;;;;;;15.45;12.60;;;4.80;99.90;;;;;;2077027;28;20029;-79
2021/03/19 03:23:58;;;;;;;15.73;12.60;;;4.80;99.90;;;;;;2073896;28;20393;-78
2021/03/19 03:24:59;;;;;;;15.95;13.43;;;4.80;99.90;;;;;;2081854;28;20690;-78
2021/03/19 03:26:00;;;;;;;16.52;13.30;;;4.90;99.90;;;;;;2074780;28;20096;-78
2021/03/19 03:27:01;;;;;;;14.85;12.55;;;4.80;99.90;;;;;;2073720;28;20036;-79
2021/03/19 03:28:04;;;;;;;18.08;12.50;;;4.90;99.90;;;;;;2087612;28;20037;-78
2021/03/19 03:29:05;;;;;;;16.55;13.20;;;4.80;99.90;;;;;;2090405;28;20059;-79
2021/03/19 03:30:14;;;;;;;16.65;13.20;;;4.90;99.90;;;;;;2083491;28;20060;-78
2021/03/19 03:31:14;;;;;;;15.45;12.80;;;4.80;99.90;;;;;;2091884;28;20049;-77
2021/03/19 03:32:15;;;;;;;16.38;13.02;;;4.80;99.90;;;;;;2091242;28;20032;-78
2021/03/19 03:33:16;;;;;;;15.32;12.95;;;4.80;99.90;;;;;;2082532;28;20029;-76
2021/03/19 03:34:17;;;;;;;16.75;13.43;;;4.80;99.90;;;;;;2081306;28;20029;-77
2021/03/19 03:35:19;;;;;;;16.15;11.75;;;4.80;99.90;;;;;;2073036;28;20113;-77
2021/03/19 03:36:21;;;;;;;15.70;12.38;;;4.80;99.90;;;;;;2081360;28;20060;-77
2021/03/19 03:37:22;;;;;;;16.45;12.65;;;4.80;99.90;;;;;;2072911;28;20445;-77
2021/03/19 03:38:25;;;;;;;13.88;12.25;;;4.80;99.90;;;;;;2081513;28;20021;-77
2021/03/19 03:39:30;;;;;;;16.10;13.00;;;4.80;99.90;;;;;;2081140;28;20049;-77
2021/03/19 03:40:39;;;;;;;16.30;13.00;;;4.80;99.90;;;;;;2081549;28;20033;-77
2021/03/19 03:41:41;;;;;;;17.83;13.82;;;4.80;99.90;;;;;;2073961;28;20080;-77
2021/03/19 03:42:42;;;;;;;16.70;13.10;;;4.80;99.90;;;;;;2089100;28;20631;-77
2021/03/19 03:43:44;;;;;;;15.85;13.52;;;4.80;99.90;;;;;;2097495;28;20028;-77
2021/03/19 03:44:44;;;;;;;15.35;13.35;;;4.70;99.90;;;;;;2098075;28;20121;-76
2021/03/19 03:45:46;;;;;;;16.33;13.18;;;4.70;99.90;;;;;;2086425;28;20504;-76
2021/03/19 03:46:46;;;;;;;15.98;12.85;;;4.70;99.90;;;;;;2072675;28;20501;-77
2021/03/19 03:47:47;;;;;;;15.07;13.43;;;4.70;99.90;;;;;;2073041;28;20062;-77
2021/03/19 03:48:48;;;;;;;20.00;14.18;;;4.70;99.90;;;;;;2080773;28;20045;-76
2021/03/19 03:49:49;;;;;;;17.27;13.48;;;4.60;99.90;;;;;;2080616;28;20028;-77
2021/03/19 03:50:50;;;;;;;15.40;12.90;;;4.60;99.90;;;;;;2071816;28;20572;-76
2021/03/19 03:51:52;;;;;;;16.10;12.77;;;4.60;99.90;;;;;;2065926;28;20533;-77
2021/03/19 03:52:52;;;;;;;16.75;13.18;;;4.60;99.90;;;;;;2073075;28;20030;-76
2021/03/19 03:53:53;;;;;;;17.67;13.63;;;4.60;99.90;;;;;;2076538;28;20045;-80
2021/03/19 03:54:54;;;;;;;17.33;13.57;;;4.50;99.90;;;;;;2084110;28;20084;-80
2021/03/19 03:55:55;;;;;;;19.92;14.40;;;4.50;99.90;;;;;;2084586;28;20111;-80
2021/03/19 03:56:56;;;;;;;17.60;13.80;;;4.40;99.90;;;;;;2084407;28;20051;-80
2021/03/19 03:57:56;;;;;;;17.55;14.35;;;4.40;99.90;;;;;;2085366;28;20052;-79
2021/03/19 03:58:57;;;;;;;14.80;13.05;;;4.40;99.90;;;;;;2084301;28;20084;-80
2021/03/19 03:59:58;;;;;;;16.33;13.27;;;4.40;99.90;;;;;;2075978;28;20063;-80
2021/03/19 04:00:58;;;;;;;15.23;13.43;;;4.40;99.90;;;;;;2092339;28;20029;-79
2021/03/19 04:01:59;;;;;;;16.83;14.02;;;4.40;99.90;;;;;;2092690;28;20049;-80
2021/03/19 04:03:01;;;;;;;17.77;12.63;;;4.40;99.90;;;;;;2083942;28;20025;-80
2021/03/19 04:04:02;;;;;;;15.52;13.40;;;4.30;99.90;;;;;;2092566;28;20036;-80
2021/03/19 04:05:06;;;;;;;16.05;12.95;;;4.30;99.90;;;;;;2092455;28;20607;-80
2021/03/19 04:06:07;;;;;;;17.35;13.20;;;4.30;99.90;;;;;;2084411;28;20022;-80
2021/03/19 04:07:08;;;;;;;17.08;13.25;;;4.30;99.90;;;;;;2092606;28;20021;-80
2021/03/19 04:08:13;;;;;;;17.48;12.85;;;4.30;99.90;;;;;;2092653;28;20023;-80
2021/03/19 04:09:14;;;;;;;18.20;12.88;;;4.30;99.90;;;;;;2084494;28;20022;-80
2021/03/19 04:10:15;;;;;;;15.95;12.60;;;4.30;99.90;;;;;;2092317;28;20520;-80
2021/03/19 04:11:20;;;;;;;17.45;13.35;;;4.30;99.90;;;;;;2092517;28;20366;-80
2021/03/19 04:12:20;;;;;;;14.98;12.80;;;4.30;99.90;;;;;;2084511;28;20034;-80
2021/03/19 04:13:24;;;;;;;14.45;12.85;;;4.30;99.90;;;;;;2093527;28;20032;-80
2021/03/19 04:14:25;;;;;;;14.57;12.85;;;4.30;99.90;;;;;;2092778;28;20106;-80
2021/03/19 04:15:26;;;;;;;18.42;13.35;;;4.20;99.90;;;;;;2084567;28;20025;-80
2021/03/19 04:16:28;;;;;;;17.92;12.73;;;4.20;99.90;;;;;;2093008;28;20420;-80
2021/03/19 04:17:30;;;;;;;17.05;12.60;;;4.20;99.90;;;;;;2092294;28;20135;-80
2021/03/19 04:18:31;;;;;;;14.43;11.25;;;4.20;99.90;;;;;;2078292;28;20018;-80
2021/03/19 04:19:32;;;;;;;16.08;13.18;;;4.20;99.90;;;;;;2076951;28;20025;-80
2021/03/19 04:20:34;;;;;;;14.85;12.13;;;4.20;99.90;;;;;;2075127;28;20497;-79
2021/03/19 04:21:35;;;;;;;13.20;11.35;;;4.20;99.90;;;;;;2076851;28;20180;-80
2021/03/19 04:22:35;;;;;;;18.98;12.77;;;4.20;99.90;;;;;;2076330;28;20030;-80
2021/03/19 04:23:42;;;;;;;15.38;12.13;;;4.20;99.90;;;;;;2084521;28;20029;-79
2021/03/19 04:24:44;;;;;;;14.90;11.82;;;4.20;99.90;;;;;;2077740;28;20018;-79
2021/03/19 04:25:45;;;;;;;15.57;12.02;;;4.20;99.90;;;;;;2085076;28;20039;-79
2021/03/19 04:26:45;;;;;;;13.98;12.15;;;4.20;99.90;;;;;;2085522;28;20076;-80
2021/03/19 04:27:51;;;;;;;14.57;12.18;;;4.20;99.90;;;;;;2076091;28;20026;-79
2021/03/19 04:28:52;;;;;;;16.15;11.73;;;4.10;99.90;;;;;;2077272;28;20022;-79
2021/03/19 04:29:54;;;;;;;14.48;11.88;;;4.10;99.90;;;;;;2076490;28;20030;-80
2021/03/19 04:30:55;;;;;;;16.40;11.77;;;4.10;99.90;;;;;;2076707;28;20072;-79
2021/03/19 04:31:56;;;;;;;16.52;13.25;;;4.10;99.90;;;;;;2076929;28;20026;-79
2021/03/19 04:32:57;;;;;;;14.60;11.57;;;4.10;99.90;;;;;;2085234;28;20540;-80
2021/03/19 04:33:58;;;;;;;13.80;12.00;;;4.10;99.90;;;;;;2085598;28;20060;-80
2021/03/19 04:34:59;;;;;;;17.65;12.63;;;4.10;99.90;;;;;;2085278;28;20029;-78
2021/03/19 04:36:29;;;;;;;13.85;11.90;;;4.10;99.90;;;;;;2085158;28;20029;-78
2021/03/19 04:37:31;;;;;;;12.90;10.65;;;4.10;99.90;;;;;;2075497;28;20059;-76
2021/03/19 04:38:35;;;;;;;13.27;10.40;;;4.00;99.90;;;;;;2071438;28;20022;-76
2021/03/19 04:39:40;;;;;;;15.85;11.80;;;4.00;99.90;;;;;;2079698;28;20026;-76
2021/03/19 04:40:44;;;;;;;28.25;11.82;;;4.00;99.90;;;;;;2071992;28;20383;-76
2021/03/19 04:41:51;;;;;;;13.18;11.35;;;4.00;99.90;;;;;;2072007;28;20156;-76
2021/03/19 04:42:52;;;;;;;14.40;11.10;;;4.00;99.90;;;;;;2079674;28;20139;-76
2021/03/19 04:43:53;;;;;;;12.32;10.35;;;4.00;99.90;;;;;;2079554;28;20026;-76
2021/03/19 04:44:54;;;;;;;13.88;11.20;;;4.00;99.90;;;;;;2079785;28;20035;-76
2021/03/19 04:45:55;;;;;;;15.23;11.02;;;4.00;99.90;;;;;;2078323;28;20600;-76
2021/03/19 04:46:56;;;;;;;14.43;11.30;;;4.00;99.90;;;;;;2079289;28;20037;-76
2021/03/19 04:47:57;;;;;;;12.30;10.70;;;4.00;99.90;;;;;;2071399;28;20030;-76
2021/03/19 04:48:57;;;;;;;13.68;11.15;;;4.00;99.90;;;;;;2079543;28;20049;-78
2021/03/19 04:49:58;;;;;;;13.38;10.23;;;3.90;99.90;;;;;;2087909;28;20234;-76
2021/03/19 04:50:59;;;;;;;12.27;10.43;;;3.90;99.90;;;;;;2087583;28;20025;-76
2021/03/19 04:52:00;;;;;;;13.55;11.43;;;3.90;99.90;;;;;;2079990;28;20022;-76
2021/03/19 04:53:01;;;;;;;15.23;11.88;;;3.90;99.90;;;;;;2079661;28;20033;-76
2021/03/19 04:54:02;;;;;;;13.82;10.55;;;3.90;99.90;;;;;;2079302;28;20021;-75
2021/03/19 04:55:04;;;;;;;14.48;11.27;;;3.90;99.90;;;;;;2079230;28;20113;-76
2021/03/19 04:56:05;;;;;;;12.95;11.63;;;3.90;99.90;;;;;;2079623;28;20477;-76
2021/03/19 04:57:06;;;;;;;13.82;11.75;;;3.90;99.90;;;;;;2078793;28;20034;-76
2021/03/19 04:58:06;;;;;;;15.27;11.00;;;3.90;99.90;;;;;;2087580;28;20072;-76
2021/03/19 04:59:07;;;;;;;13.27;10.43;;;3.90;99.90;;;;;;2087727;28;20044;-76
2021/03/19 05:00:10;;;;;;;15.45;11.63;;;3.90;99.90;;;;;;2082808;28;20421;-76
2021/03/19 05:01:11;;;;;;;13.13;11.70;;;3.90;99.90;;;;;;2087123;28;20067;-76
2021/03/19 05:02:12;;;;;;;13.90;10.35;;;3.90;99.90;;;;;;2065588;28;20038;-76
2021/03/19 05:03:13;;;;;;;13.23;11.15;;;3.90;99.90;;;;;;2072554;28;20097;-76
2021/03/19 05:04:14;;;;;;;13.95;11.32;;;3.90;99.90;;;;;;2079723;28;20022;-76
2021/03/19 05:05:20;;;;;;;12.50;10.40;;;3.90;99.90;;;;;;2079251;28;20029;-76
2021/03/19 05:06:21;;;;;;;12.77;10.63;;;3.90;99.90;;;;;;2072107;28;20034;-76
2021/03/19 05:07:22;;;;;;;12.50;11.07;;;3.90;99.90;;;;;;2070444;28;20025;-76
2021/03/19 05:08:22;;;;;;;19.08;11.82;;;3.80;99.90;;;;;;2079349;28;20030;-76
2021/03/19 05:09:23;;;;;;;12.77;10.68;;;3.80;99.90;;;;;;2079351;28;20523;-76
2021/03/19 05:10:35;;;;;;;16.17;11.15;;;3.80;99.90;;;;;;2071675;28;20034;-76
2021/03/19 05:11:36;;;;;;;15.13;10.93;;;3.80;99.90;;;;;;2079269;28;20029;-76
2021/03/19 05:12:37;;;;;;;14.50;11.10;;;3.80;99.90;;;;;;2079621;28;20509;-76
2021/03/19 05:13:38;;;;;;;11.93;10.73;;;3.80;99.90;;;;;;2071183;28;20034;-76
2021/03/19 05:14:39;;;;;;;14.02;10.68;;;3.80;99.90;;;;;;2079424;28;20029;-76
2021/03/19 05:15:41;;;;;;;14.18;11.25;;;3.80;99.90;;;;;;2076903;28;20402;-76
2021/03/19 05:16:41;;;;;;;13.20;10.88;;;3.80;99.90;;;;;;2071436;28;20033;-75
2021/03/19 05:17:42;;;;;;;14.65;10.55;;;3.80;99.90;;;;;;2070434;28;20113;-76
2021/03/19 05:18:43;;;;;;;12.50;10.27;;;3.80;99.90;;;;;;2071312;28;20084;-76
2021/03/19 05:19:43;;;;;;;13.90;11.18;;;3.80;99.90;;;;;;2079552;28;20074;-76
2021/03/19 05:20:44;;;;;;;11.80;9.77;;;3.80;99.90;;;;;;2088054;28;20048;-76
2021/03/19 05:21:46;;;;;;;11.75;10.30;;;3.70;99.90;;;;;;2087412;28;20094;-76
2021/03/19 05:22:46;;;;;;;17.17;12.50;;;3.70;99.90;;;;;;2071092;28;20482;-76
2021/03/19 05:23:47;;;;;;;14.27;10.23;;;3.70;99.90;;;;;;2071364;28;20097;-76
2021/03/19 05:24:48;;;;;;;15.43;11.13;;;3.70;99.90;;;;;;2079010;28;20022;-76
2021/03/19 05:25:48;;;;;;;13.32;11.13;;;3.70;99.90;;;;;;2071289;28;20037;-76
2021/03/19 05:26:49;;;;;;;11.27;10.13;;;3.70;99.90;;;;;;2063060;28;20026;-76
2021/03/19 05:27:51;;;;;;;13.20;10.63;;;3.70;99.90;;;;;;2074234;28;20021;-76
2021/03/19 05:28:52;;;;;;;12.40;10.05;;;3.70;99.90;;;;;;2078898;28;20021;-76
2021/03/19 05:29:57;;;;;;;15.98;11.18;;;3.70;99.90;;;;;;2079312;28;20033;-76
2021/03/19 05:30:59;;;;;;;12.13;10.43;;;3.70;99.90;;;;;;2079068;28;20018;-76
2021/03/19 05:31:59;;;;;;;11.75;10.38;;;3.70;99.90;;;;;;2070707;28;20022;-76
2021/03/19 05:33:04;;;;;;;15.32;10.63;;;3.70;99.90;;;;;;2079026;28;20029;-76
2021/03/19 05:34:04;;;;;;;14.88;11.52;;;3.60;99.90;;;;;;2079097;28;20278;-76
2021/03/19 05:35:08;;;;;;;14.02;10.77;;;3.70;99.90;;;;;;2079318;28;20029;-75